Time;durP1;ratioP1;P1;durP2;ratioP2;P2;SDS_P1;SDS_P2;PMS_P1;PMS_P2;Temp;Humidity;BMP_temperature;BMP_pressure;BME280_temperature;BME280_humidity;BME280_pressure;Samples;Min_cycle;Max_cycle;Signal;HPM_P1;HPM_P2
2022/11/03 00:00:47;;;;;;;95.85;39.83;;;;;;;;;;5066242;28;20029;-79
2022/11/03 00:03:32;;;;;;;97.65;40.97;;;;;;;;;;5065350;28;20037;-79
2022/11/03 00:06:17;;;;;;;104.95;41.83;;;;;;;;;;5052172;28;20048;-80
2022/11/03 00:09:05;;;;;;;97.75;41.00;;;;;;;;;;5067806;28;20044;-79
2022/11/03 00:11:50;;;;;;;94.07;40.03;;;;;;;;;;5067143;28;20048;-80
2022/11/03 00:14:36;;;;;;;108.32;44.63;;;;;;;;;;5063773;28;20048;-79
2022/11/03 00:17:22;;;;;;;111.25;45.28;;;;;;;;;;5060229;28;20040;-80
2022/11/03 00:20:08;;;;;;;111.07;45.33;;;;;;;;;;5060984;28;20044;-80
2022/11/03 00:22:52;;;;;;;117.85;46.25;;;;;;;;;;5060525;28;20041;-80
2022/11/03 00:25:37;;;;;;;115.45;44.58;;;;;;;;;;5053324;28;20033;-79
2022/11/03 00:28:23;;;;;;;109.85;44.35;;;;;;;;;;5060434;28;20037;-79
2022/11/03 00:31:14;;;;;;;109.45;43.55;;;;;;;;;;5053215;28;20376;-79
2022/11/03 00:34:01;;;;;;;114.35;46.13;;;;;;;;;;5060665;28;20041;-79
2022/11/03 00:36:46;;;;;;;109.22;45.25;;;;;;;;;;5059101;28;20391;-79
2022/11/03 00:39:32;;;;;;;111.35;46.10;;;;;;;;;;5060248;28;20472;-79
2022/11/03 00:42:17;;;;;;;120.78;45.38;;;;;;;;;;5060449;28;20048;-79
2022/11/03 00:45:02;;;;;;;113.88;44.80;;;;;;;;;;5060240;28;20045;-78
2022/11/03 00:50:52;;;;;;;107.75;42.70;;;;;;;;;;5055934;28;20049;-79
2022/11/03 00:53:52;;;;;;;104.03;42.70;;;;;;;;;;5053184;28;20033;-79
2022/11/03 00:56:40;;;;;;;104.18;43.05;;;;;;;;;;5059319;28;20384;-79
2022/11/03 00:59:25;;;;;;;107.78;43.42;;;;;;;;;;5059161;28;20037;-79
2022/11/03 01:02:11;;;;;;;107.28;43.83;;;;;;;;;;5059188;28;20041;-79
2022/11/03 01:08:00;;;;;;;107.50;42.88;;;;;;;;;;5058890;28;20049;-79
2022/11/03 01:13:49;;;;;;;125.88;44.78;;;;;;;;;;5058789;28;20049;-77
2022/11/03 01:16:34;;;;;;;122.93;47.92;;;;;;;;;;5059344;28;20041;-79
2022/11/03 01:19:20;;;;;;;164.07;51.15;;;;;;;;;;5052620;28;20048;-79
2022/11/03 01:22:06;;;;;;;155.02;51.20;;;;;;;;;;5058731;28;20049;-79
2022/11/03 01:24:51;;;;;;;155.82;49.58;;;;;;;;;;5059165;28;20048;-80
2022/11/03 01:27:36;;;;;;;146.25;48.63;;;;;;;;;;5051843;28;20041;-79
2022/11/03 01:30:21;;;;;;;162.65;50.42;;;;;;;;;;5059211;28;20468;-80
2022/11/03 01:33:06;;;;;;;168.98;50.17;;;;;;;;;;5058175;28;20048;-79
2022/11/03 01:35:52;;;;;;;142.70;44.47;;;;;;;;;;5058309;28;20045;-79
2022/11/03 01:38:38;;;;;;;181.15;45.20;;;;;;;;;;5053837;28;20041;-78
2022/11/03 01:41:26;;;;;;;158.27;46.13;;;;;;;;;;5058759;28;20049;-78
2022/11/03 01:44:11;;;;;;;165.68;47.30;;;;;;;;;;5052347;28;20053;-79
2022/11/03 01:47:19;;;;;;;189.25;49.75;;;;;;;;;;5052423;28;20049;-78
2022/11/03 01:50:06;;;;;;;167.00;47.15;;;;;;;;;;5015557;28;1277790;-79
2022/11/03 01:52:55;;;;;;;150.90;46.85;;;;;;;;;;5056734;28;20040;-80
2022/11/03 01:55:41;;;;;;;148.88;44.08;;;;;;;;;;5062755;28;20037;-79
2022/11/03 01:58:33;;;;;;;136.27;40.55;;;;;;;;;;5063327;28;20044;-78
2022/11/03 02:01:18;;;;;;;141.10;38.38;;;;;;;;;;5057265;28;20041;-78
2022/11/03 02:04:15;;;;;;;176.60;39.55;;;;;;;;;;5056209;28;20037;-78
2022/11/03 02:07:06;;;;;;;153.55;37.88;;;;;;;;;;5056355;28;20045;-79
2022/11/03 02:09:52;;;;;;;200.50;41.13;;;;;;;;;;5063071;28;20044;-78
2022/11/03 02:12:38;;;;;;;200.25;44.10;;;;;;;;;;5056413;28;20472;-78
2022/11/03 02:15:23;;;;;;;153.60;41.28;;;;;;;;;;5063132;28;20040;-79
2022/11/03 02:18:10;;;;;;;160.40;40.92;;;;;;;;;;5055719;28;20045;-79
2022/11/03 02:21:07;;;;;;;128.25;39.45;;;;;;;;;;5063645;28;20456;-79
2022/11/03 02:24:14;;;;;;;160.93;39.13;;;;;;;;;;5061942;28;20049;-79
2022/11/03 02:26:59;;;;;;;166.82;40.83;;;;;;;;;;5062554;28;20049;-79
2022/11/03 02:29:44;;;;;;;155.32;41.40;;;;;;;;;;5062875;28;20045;-80
2022/11/03 02:32:43;;;;;;;149.68;39.03;;;;;;;;;;5055799;28;20371;-79
2022/11/03 02:35:37;;;;;;;116.60;35.10;;;;;;;;;;5062425;28;20044;-79
2022/11/03 02:38:27;;;;;;;135.90;36.08;;;;;;;;;;5062032;28;20040;-82
2022/11/03 02:41:14;;;;;;;93.47;34.75;;;;;;;;;;5062621;28;20464;-80
2022/11/03 02:44:01;;;;;;;111.95;37.92;;;;;;;;;;5062852;28;20036;-80
2022/11/03 02:46:49;;;;;;;88.30;33.35;;;;;;;;;;5062524;28;20049;-79
2022/11/03 02:49:53;;;;;;;109.03;35.53;;;;;;;;;;5055121;28;20480;-79
2022/11/03 02:52:45;;;;;;;86.97;31.35;;;;;;;;;;5061993;28;20044;-80
2022/11/03 02:55:33;;;;;;;105.00;34.17;;;;;;;;;;5075004;28;20036;-80
2022/11/03 02:58:18;;;;;;;139.70;39.70;;;;;;;;;;5061709;28;20041;-78
2022/11/03 03:01:13;;;;;;;134.70;41.08;;;;;;;;;;5061779;28;20036;-80
2022/11/03 03:04:02;;;;;;;125.80;39.67;;;;;;;;;;5061798;28;20045;-79
2022/11/03 03:06:56;;;;;;;138.40;41.60;;;;;;;;;;5056260;28;20053;-81
2022/11/03 03:09:54;;;;;;;137.90;41.65;;;;;;;;;;5061958;28;20045;-80
2022/11/03 03:12:45;;;;;;;127.03;40.65;;;;;;;;;;5061831;28;20403;-78
2022/11/03 03:15:56;;;;;;;133.38;39.40;;;;;;;;;;5061643;28;20045;-81
2022/11/03 03:19:05;;;;;;;148.45;40.90;;;;;;;;;;5061444;28;20045;-79
2022/11/03 03:21:53;;;;;;;134.10;41.17;;;;;;;;;;5061614;28;20048;-80
2022/11/03 03:24:49;;;;;;;164.68;41.00;;;;;;;;;;5054665;28;20044;-78
2022/11/03 03:27:40;;;;;;;176.82;41.75;;;;;;;;;;5054734;28;20471;-80
2022/11/03 03:30:28;;;;;;;149.38;43.67;;;;;;;;;;5061298;28;20040;-79
2022/11/03 03:33:14;;;;;;;153.75;41.47;;;;;;;;;;5060248;28;20053;-79
2022/11/03 03:36:05;;;;;;;157.02;40.70;;;;;;;;;;5061528;28;20041;-79
2022/11/03 03:39:03;;;;;;;126.43;40.55;;;;;;;;;;5061234;28;20045;-81
2022/11/03 03:41:48;;;;;;;149.30;43.17;;;;;;;;;;5054340;28;20045;-80
2022/11/03 03:44:35;;;;;;;146.88;41.10;;;;;;;;;;5054809;28;20108;-81
2022/11/03 03:47:27;;;;;;;153.68;41.95;;;;;;;;;;5060067;28;20053;-79
2022/11/03 03:50:13;;;;;;;166.32;44.13;;;;;;;;;;5060266;28;20045;-80
2022/11/03 03:53:08;;;;;;;143.90;45.00;;;;;;;;;;5054013;28;20037;-79
2022/11/03 03:55:54;;;;;;;203.38;57.45;;;;;;;;;;5053953;28;20392;-80
2022/11/03 03:58:39;;;;;;;176.90;46.47;;;;;;;;;;5061259;28;20048;-79
2022/11/03 04:01:25;;;;;;;91.20;32.13;;;;;;;;;;5054158;28;20041;-77
2022/11/03 04:04:11;;;;;;;122.72;37.85;;;;;;;;;;5057049;28;20471;-78
2022/11/03 04:09:59;;;;;;;123.50;40.40;;;;;;;;;;5073530;28;20048;-79
2022/11/03 04:22:17;;;;;;;157.97;42.13;;;;;;;;;;5042292;28;20044;-79
2022/11/03 04:25:03;;;;;;;160.00;49.63;;;;;;;;;;5055528;28;20048;-79
2022/11/03 04:27:48;;;;;;;139.38;43.28;;;;;;;;;;5076684;28;20399;-79
2022/11/03 04:30:33;;;;;;;142.48;43.20;;;;;;;;;;5080962;28;20036;-78
2022/11/03 04:33:20;;;;;;;151.25;42.22;;;;;;;;;;5073957;28;20048;-79
2022/11/03 04:36:17;;;;;;;145.18;41.70;;;;;;;;;;5073684;28;20040;-79
2022/11/03 04:39:14;;;;;;;134.25;39.53;;;;;;;;;;5080376;28;20044;-80
2022/11/03 04:42:00;;;;;;;115.32;36.83;;;;;;;;;;5080325;28;20052;-79
2022/11/03 04:44:46;;;;;;;113.43;37.45;;;;;;;;;;5079781;28;20044;-78
2022/11/03 04:47:32;;;;;;;135.88;41.78;;;;;;;;;;5071898;28;20468;-80
2022/11/03 04:50:19;;;;;;;155.77;42.00;;;;;;;;;;5075824;28;20463;-81
2022/11/03 04:53:27;;;;;;;148.50;41.40;;;;;;;;;;5072620;28;20048;-80
2022/11/03 04:56:14;;;;;;;130.52;40.88;;;;;;;;;;5064314;28;20044;-79
2022/11/03 04:58:59;;;;;;;172.77;42.97;;;;;;;;;;5065557;28;20045;-79
2022/11/03 05:01:45;;;;;;;136.15;41.20;;;;;;;;;;5060387;28;20037;-79
2022/11/03 05:04:31;;;;;;;149.68;43.03;;;;;;;;;;5053138;28;20041;-79
2022/11/03 05:07:22;;;;;;;147.32;43.20;;;;;;;;;;5053500;28;20032;-77
2022/11/03 05:10:14;;;;;;;128.45;41.83;;;;;;;;;;5059949;28;20488;-80
2022/11/03 05:12:59;;;;;;;136.60;39.97;;;;;;;;;;5053066;28;20057;-80
2022/11/03 05:15:47;;;;;;;118.10;39.00;;;;;;;;;;5059876;28;20475;-79
2022/11/03 05:18:36;;;;;;;117.72;37.95;;;;;;;;;;5060001;28;20048;-77
2022/11/03 05:21:22;;;;;;;119.50;37.53;;;;;;;;;;5060030;28;20040;-78
2022/11/03 05:24:11;;;;;;;115.47;40.40;;;;;;;;;;5063203;28;20388;-79
2022/11/03 05:26:58;;;;;;;112.40;39.83;;;;;;;;;;5062157;28;20044;-79
2022/11/03 05:29:45;;;;;;;121.47;39.97;;;;;;;;;;5087106;28;20048;-78
2022/11/03 05:32:33;;;;;;;130.88;40.83;;;;;;;;;;5096490;28;20040;-79
2022/11/03 05:35:21;;;;;;;115.15;40.38;;;;;;;;;;5077173;28;20040;-79
2022/11/03 05:38:13;;;;;;;76.28;31.83;;;;;;;;;;5083693;28;20384;-79
2022/11/03 05:40:59;;;;;;;100.65;36.15;;;;;;;;;;5076547;28;20370;-79
2022/11/03 05:43:43;;;;;;;117.35;37.85;;;;;;;;;;5076879;28;20048;-79
2022/11/03 05:46:33;;;;;;;103.40;35.85;;;;;;;;;;5067702;28;20040;-78
2022/11/03 05:49:19;;;;;;;70.88;27.85;;;;;;;;;;5075652;28;20044;-78
2022/11/03 05:52:16;;;;;;;108.07;33.70;;;;;;;;;;5072305;28;20045;-79
2022/11/03 05:55:02;;;;;;;98.55;33.90;;;;;;;;;;5076216;28;20041;-79
2022/11/03 05:57:47;;;;;;;78.35;28.05;;;;;;;;;;5074671;28;20511;-79
2022/11/03 06:00:39;;;;;;;110.07;41.50;;;;;;;;;;5079555;28;20379;-80
2022/11/03 06:03:33;;;;;;;100.80;35.67;;;;;;;;;;5083347;28;20037;-79
2022/11/03 06:06:24;;;;;;;98.18;35.05;;;;;;;;;;5082309;28;20048;-79
2022/11/03 06:09:17;;;;;;;103.75;35.60;;;;;;;;;;5082617;28;20036;-77
2022/11/03 06:12:05;;;;;;;110.80;38.42;;;;;;;;;;5082585;28;20048;-79
2022/11/03 06:14:51;;;;;;;101.25;37.20;;;;;;;;;;5082576;28;20040;-79
2022/11/03 06:17:37;;;;;;;114.55;39.75;;;;;;;;;;5082563;28;20048;-78
2022/11/03 06:20:22;;;;;;;118.50;37.35;;;;;;;;;;5076238;28;20036;-79
2022/11/03 06:23:14;;;;;;;116.55;36.85;;;;;;;;;;5075492;28;20040;-79
2022/11/03 06:26:01;;;;;;;101.45;35.67;;;;;;;;;;5081115;28;20036;-79
2022/11/03 06:28:48;;;;;;;107.53;38.42;;;;;;;;;;5081096;28;20044;-79
2022/11/03 06:31:33;;;;;;;115.60;40.50;;;;;;;;;;5082351;28;20037;-78
2022/11/03 06:34:30;;;;;;;103.55;34.50;;;;;;;;;;5081203;28;20052;-78
2022/11/03 06:37:29;;;;;;;111.35;36.85;;;;;;;;;;5082206;28;20036;-78
2022/11/03 06:40:15;;;;;;;88.70;37.85;;;;;;;;;;5082176;28;20048;-78
2022/11/03 06:43:13;;;;;;;85.78;34.80;;;;;;;;;;5076742;28;20041;-79
2022/11/03 06:46:00;;;;;;;90.75;34.50;;;;;;;;;;5082253;28;20048;-77
2022/11/03 06:48:46;;;;;;;87.90;33.17;;;;;;;;;;5075430;28;20483;-78
2022/11/03 06:51:35;;;;;;;94.22;34.40;;;;;;;;;;5077177;28;20061;-79
2022/11/03 06:54:20;;;;;;;80.70;31.70;;;;;;;;;;5075643;28;20103;-78
2022/11/03 06:57:12;;;;;;;79.93;29.67;;;;;;;;;;5081327;28;20040;-79
2022/11/03 06:59:57;;;;;;;68.93;29.25;;;;;;;;;;5082072;28;20056;-78
2022/11/03 07:02:45;;;;;;;64.35;28.40;;;;;;;;;;5081846;28;20048;-80
2022/11/03 07:05:31;;;;;;;75.25;28.95;;;;;;;;;;5081858;28;20036;-79
2022/11/03 07:08:39;;;;;;;69.78;30.13;;;;;;;;;;5074991;28;20044;-78
2022/11/03 07:11:27;;;;;;;74.63;29.77;;;;;;;;;;5074904;28;20379;-78
2022/11/03 07:14:17;;;;;;;82.15;28.55;;;;;;;;;;5081810;28;20041;-80
2022/11/03 07:17:04;;;;;;;75.45;31.42;;;;;;;;;;5074509;28;20033;-78
2022/11/03 07:19:50;;;;;;;60.88;26.95;;;;;;;;;;5075473;28;20048;-80
2022/11/03 07:22:34;;;;;;;61.60;25.45;;;;;;;;;;5080500;28;20045;-79
2022/11/03 07:25:20;;;;;;;57.65;24.67;;;;;;;;;;5081722;28;20048;-83
2022/11/03 07:28:09;;;;;;;52.35;23.13;;;;;;;;;;5075595;28;20040;-78
2022/11/03 07:30:55;;;;;;;46.45;23.48;;;;;;;;;;5074549;28;20040;-79
2022/11/03 07:33:40;;;;;;;43.47;21.85;;;;;;;;;;5081255;28;20048;-78
2022/11/03 07:36:30;;;;;;;53.38;25.25;;;;;;;;;;5074437;28;20048;-78
2022/11/03 07:39:19;;;;;;;47.53;23.33;;;;;;;;;;5074210;28;20036;-78
2022/11/03 07:42:31;;;;;;;51.25;24.83;;;;;;;;;;5081231;28;20040;-79
2022/11/03 07:45:38;;;;;;;47.80;22.13;;;;;;;;;;5080185;28;20048;-79
2022/11/03 07:48:26;;;;;;;51.70;24.70;;;;;;;;;;5081182;28;20052;-78
2022/11/03 07:51:20;;;;;;;44.47;23.63;;;;;;;;;;5075789;28;20044;-79
2022/11/03 07:54:15;;;;;;;47.38;23.13;;;;;;;;;;5080997;28;20375;-79
2022/11/03 07:57:13;;;;;;;;;;;;;;;;;;5081245;28;20460;-79
2022/11/03 08:00:06;;;;;;;39.60;20.05;;;;;;;;;;5080684;28;19916;-79
2022/11/03 08:03:00;;;;;;;51.75;24.08;;;;;;;;;;5073812;28;20383;-80
2022/11/03 08:05:45;;;;;;;48.95;22.58;;;;;;;;;;5074087;28;20044;-80
2022/11/03 08:08:30;;;;;;;45.92;22.42;;;;;;;;;;5074694;28;20375;-80
2022/11/03 08:11:16;;;;;;;48.45;22.25;;;;;;;;;;5081814;28;20044;-80
2022/11/03 08:14:01;;;;;;;49.70;25.83;;;;;;;;;;5080577;28;20048;-79
2022/11/03 08:16:46;;;;;;;56.63;25.63;;;;;;;;;;5080399;28;20040;-80
2022/11/03 08:19:32;;;;;;;52.30;22.45;;;;;;;;;;5080625;28;20410;-79
2022/11/03 08:22:17;;;;;;;53.80;24.33;;;;;;;;;;5080057;28;20044;-79
2022/11/03 08:25:03;;;;;;;53.78;26.02;;;;;;;;;;5073747;28;20045;-79
2022/11/03 08:27:48;;;;;;;58.20;26.55;;;;;;;;;;5073628;28;20471;-79
2022/11/03 08:30:33;;;;;;;59.42;27.13;;;;;;;;;;5080455;28;20459;-79
2022/11/03 08:33:19;;;;;;;61.80;27.00;;;;;;;;;;5080734;28;20044;-79
2022/11/03 08:36:05;;;;;;;62.75;28.50;;;;;;;;;;5079877;28;20391;-78
2022/11/03 08:38:50;;;;;;;70.53;31.10;;;;;;;;;;5073640;28;20033;-79
2022/11/03 08:41:36;;;;;;;64.15;29.92;;;;;;;;;;5078990;28;20045;-80
2022/11/03 08:44:21;;;;;;;83.68;33.35;;;;;;;;;;5080315;28;20048;-78
2022/11/03 08:47:07;;;;;;;83.80;32.97;;;;;;;;;;5080063;28;20044;-78
2022/11/03 08:49:53;;;;;;;75.38;31.00;;;;;;;;;;5072953;28;20045;-78
2022/11/03 08:52:38;;;;;;;80.30;33.15;;;;;;;;;;5074703;28;20479;-79
2022/11/03 08:55:24;;;;;;;84.35;33.20;;;;;;;;;;5072720;28;20387;-78
2022/11/03 08:58:09;;;;;;;87.20;34.80;;;;;;;;;;5081392;28;20036;-79
2022/11/03 09:00:54;;;;;;;89.72;35.15;;;;;;;;;;5077805;28;20037;-79
2022/11/03 09:03:40;;;;;;;90.88;34.42;;;;;;;;;;5077276;28;20044;-79
2022/11/03 09:06:25;;;;;;;91.85;35.30;;;;;;;;;;5083551;28;20048;-79
2022/11/03 09:09:10;;;;;;;90.97;36.35;;;;;;;;;;5084115;28;20048;-78
2022/11/03 09:11:55;;;;;;;107.05;38.47;;;;;;;;;;5084090;28;20049;-78
2022/11/03 09:14:41;;;;;;;112.85;38.90;;;;;;;;;;5077258;28;20048;-79
2022/11/03 09:17:26;;;;;;;111.55;37.83;;;;;;;;;;5076672;28;20044;-77
2022/11/03 09:20:12;;;;;;;99.97;38.42;;;;;;;;;;5084195;28;20097;-78
2022/11/03 09:22:57;;;;;;;110.63;39.40;;;;;;;;;;5083832;28;20044;-77
2022/11/03 09:25:43;;;;;;;110.38;41.10;;;;;;;;;;5077575;28;20467;-78
2022/11/03 09:28:29;;;;;;;97.05;38.95;;;;;;;;;;5084316;28;20360;-80
2022/11/03 09:31:14;;;;;;;101.70;39.53;;;;;;;;;;5076765;28;20044;-79
2022/11/03 09:33:59;;;;;;;96.00;37.80;;;;;;;;;;5083636;28;20048;-79
2022/11/03 09:36:43;;;;;;;95.30;38.90;;;;;;;;;;5077706;28;20045;-78
2022/11/03 09:39:29;;;;;;;87.68;37.20;;;;;;;;;;5083474;28;20394;-79
2022/11/03 09:42:16;;;;;;;93.80;38.50;;;;;;;;;;5083884;28;20040;-79
2022/11/03 09:45:01;;;;;;;81.88;36.88;;;;;;;;;;5082874;28;20044;-79
2022/11/03 09:47:47;;;;;;;90.63;35.83;;;;;;;;;;5076559;28;20056;-78
2022/11/03 09:50:32;;;;;;;98.95;44.15;;;;;;;;;;5080201;28;20044;-79
2022/11/03 09:53:18;;;;;;;88.85;36.28;;;;;;;;;;5083631;28;20459;-79
2022/11/03 09:56:04;;;;;;;88.35;35.15;;;;;;;;;;5083193;28;20395;-78
2022/11/03 09:58:50;;;;;;;83.15;35.20;;;;;;;;;;5082523;28;20048;-78
2022/11/03 10:01:35;;;;;;;83.15;34.80;;;;;;;;;;5083102;28;20040;-78
2022/11/03 10:04:26;;;;;;;79.20;35.08;;;;;;;;;;5082940;28;20041;-78
2022/11/03 10:07:12;;;;;;;79.50;35.90;;;;;;;;;;5082617;28;20040;-80
2022/11/03 10:10:00;;;;;;;84.22;36.22;;;;;;;;;;5082945;28;20044;-80
2022/11/03 10:12:48;;;;;;;98.75;38.85;;;;;;;;;;5075967;28;20048;-78
2022/11/03 10:15:33;;;;;;;84.15;36.13;;;;;;;;;;5082398;28;20048;-78
2022/11/03 10:18:18;;;;;;;86.68;37.75;;;;;;;;;;5076451;28;20471;-80
2022/11/03 10:21:15;;;;;;;87.38;37.85;;;;;;;;;;5083119;28;20045;-80
2022/11/03 10:24:00;;;;;;;92.78;38.80;;;;;;;;;;5082772;28;20044;-79
2022/11/03 10:26:51;;;;;;;84.57;36.03;;;;;;;;;;5082455;28;20049;-78
2022/11/03 10:29:36;;;;;;;92.32;39.45;;;;;;;;;;5075879;28;20074;-79
2022/11/03 10:32:29;;;;;;;92.40;39.42;;;;;;;;;;5075966;28;20045;-77
2022/11/03 10:35:35;;;;;;;92.13;38.10;;;;;;;;;;5082538;28;20480;-78
2022/11/03 10:38:30;;;;;;;86.25;37.17;;;;;;;;;;5075382;28;20036;-80
2022/11/03 10:41:19;;;;;;;88.97;37.85;;;;;;;;;;5075530;28;20040;-78
2022/11/03 10:44:11;;;;;;;86.28;36.63;;;;;;;;;;5082424;28;20045;-79
2022/11/03 10:47:01;;;;;;;81.53;37.08;;;;;;;;;;5082386;28;20067;-77
2022/11/03 10:49:46;;;;;;;82.68;36.03;;;;;;;;;;5075148;28;20049;-79
2022/11/03 10:52:32;;;;;;;83.97;37.35;;;;;;;;;;5081488;28;20041;-79
2022/11/03 10:55:19;;;;;;;75.88;36.28;;;;;;;;;;5075175;28;20052;-79
2022/11/03 10:58:05;;;;;;;82.53;36.38;;;;;;;;;;5082008;28;20387;-79
2022/11/03 11:00:50;;;;;;;82.13;36.75;;;;;;;;;;5082020;28;20052;-79
2022/11/03 11:03:43;;;;;;;101.72;38.70;;;;;;;;;;5075994;28;20040;-79
2022/11/03 11:06:30;;;;;;;94.30;39.03;;;;;;;;;;5082249;28;20052;-78
2022/11/03 11:09:24;;;;;;;87.35;38.83;;;;;;;;;;5081659;28;20044;-78
2022/11/03 11:12:18;;;;;;;86.45;38.45;;;;;;;;;;5075077;28;20394;-80
2022/11/03 11:15:43;;;;;;;81.10;39.47;;;;;;;;;;5081644;28;20052;-79
2022/11/03 11:18:28;;;;;;;86.03;36.55;;;;;;;;;;5074484;28;20463;-80
2022/11/03 11:21:14;;;;;;;95.03;38.63;;;;;;;;;;5074566;28;20037;-78
2022/11/03 11:23:59;;;;;;;89.18;38.70;;;;;;;;;;5081049;28;20068;-78
2022/11/03 11:26:46;;;;;;;79.55;37.72;;;;;;;;;;5081724;28;20044;-78
2022/11/03 11:29:31;;;;;;;76.60;36.45;;;;;;;;;;5074498;28;20040;-78
2022/11/03 11:32:35;;;;;;;77.03;36.15;;;;;;;;;;5081450;28;20044;-78
2022/11/03 11:35:21;;;;;;;86.10;38.13;;;;;;;;;;5081510;28;20432;-78
2022/11/03 11:39:04;;;;;;;71.97;35.05;;;;;;;;;;5079661;28;20383;-79
2022/11/03 11:42:08;;;;;;;60.83;31.30;;;;;;;;;;5032357;28;20037;-79
2022/11/03 11:45:01;;;;;;;77.75;37.55;;;;;;;;;;5032805;28;20053;-78
2022/11/03 11:47:48;;;;;;;77.00;35.58;;;;;;;;;;5081474;28;20052;-79
2022/11/03 11:50:34;;;;;;;83.55;36.42;;;;;;;;;;5073972;28;20045;-78
2022/11/03 11:53:22;;;;;;;80.32;37.03;;;;;;;;;;5080868;28;20040;-80
2022/11/03 11:56:10;;;;;;;73.57;34.50;;;;;;;;;;5074795;28;20048;-77
2022/11/03 11:58:55;;;;;;;74.25;33.53;;;;;;;;;;5079419;28;20036;-77
2022/11/03 12:01:42;;;;;;;70.18;32.22;;;;;;;;;;5081391;28;20044;-76
2022/11/03 12:04:30;;;;;;;69.88;31.38;;;;;;;;;;5081843;28;20487;-78
2022/11/03 12:07:15;;;;;;;82.65;34.30;;;;;;;;;;5077947;28;20036;-78
2022/11/03 12:10:19;;;;;;;70.45;31.85;;;;;;;;;;5085240;28;20032;-78
2022/11/03 12:13:43;;;;;;;69.60;30.60;;;;;;;;;;5084102;28;20040;-77
2022/11/03 12:16:35;;;;;;;65.13;30.88;;;;;;;;;;5084424;28;20041;-76
2022/11/03 12:19:36;;;;;;;63.08;29.02;;;;;;;;;;5076971;28;20040;-79
2022/11/03 12:22:24;;;;;;;57.63;27.83;;;;;;;;;;5084405;28;20044;-77
2022/11/03 12:25:39;;;;;;;51.83;24.67;;;;;;;;;;5082250;28;20036;-78
2022/11/03 12:28:34;;;;;;;45.45;20.45;;;;;;;;;;5081415;28;20040;-77
2022/11/03 12:31:20;;;;;;;40.40;21.70;;;;;;;;;;5074168;28;20056;-77
2022/11/03 12:34:05;;;;;;;42.35;21.60;;;;;;;;;;5073047;28;20032;-80
2022/11/03 12:36:51;;;;;;;48.80;21.38;;;;;;;;;;5081079;28;20440;-80
2022/11/03 12:39:36;;;;;;;47.63;21.48;;;;;;;;;;5080444;28;20032;-81
2022/11/03 12:42:23;;;;;;;45.83;22.35;;;;;;;;;;5080211;28;20040;-77
2022/11/03 12:45:09;;;;;;;42.25;20.67;;;;;;;;;;5073970;28;20044;-78
2022/11/03 12:47:54;;;;;;;45.22;20.92;;;;;;;;;;5073282;28;20032;-79
2022/11/03 12:50:39;;;;;;;42.63;21.63;;;;;;;;;;5074065;28;20053;-81
2022/11/03 12:53:24;;;;;;;48.38;21.83;;;;;;;;;;5079473;28;20040;-79
2022/11/03 12:56:10;;;;;;;45.88;22.67;;;;;;;;;;5080274;28;20044;-79
2022/11/03 12:58:55;;;;;;;54.70;24.38;;;;;;;;;;5072926;28;20033;-79
2022/11/03 13:01:40;;;;;;;50.92;22.95;;;;;;;;;;5073164;28;20040;-79
2022/11/03 13:04:25;;;;;;;47.97;24.35;;;;;;;;;;5080338;28;20048;-79
2022/11/03 13:07:11;;;;;;;63.67;28.77;;;;;;;;;;5079586;28;20048;-78
2022/11/03 13:09:56;;;;;;;58.92;27.70;;;;;;;;;;5080377;28;20040;-79
2022/11/03 13:12:43;;;;;;;57.65;27.55;;;;;;;;;;5075826;28;20044;-79
2022/11/03 13:15:27;;;;;;;61.78;27.65;;;;;;;;;;5079350;28;20471;-78
2022/11/03 13:18:13;;;;;;;58.28;27.85;;;;;;;;;;5073981;28;20044;-79
2022/11/03 13:21:00;;;;;;;63.03;26.88;;;;;;;;;;5078525;28;20036;-80
2022/11/03 13:23:46;;;;;;;56.72;27.42;;;;;;;;;;5073212;28;20033;-78
2022/11/03 13:26:31;;;;;;;57.55;28.08;;;;;;;;;;5072895;28;20045;-77
2022/11/03 13:29:16;;;;;;;56.88;26.95;;;;;;;;;;5078656;28;20037;-78
2022/11/03 13:32:03;;;;;;;58.83;27.42;;;;;;;;;;5079752;28;20040;-78
2022/11/03 13:34:48;;;;;;;56.15;25.85;;;;;;;;;;5073906;28;20048;-77
2022/11/03 13:37:33;;;;;;;57.22;26.42;;;;;;;;;;5088493;28;20383;-77
2022/11/03 13:40:19;;;;;;;59.47;25.13;;;;;;;;;;5071201;28;20040;-77
2022/11/03 13:43:04;;;;;;;63.45;30.17;;;;;;;;;;5079645;28;20045;-77
2022/11/03 13:45:51;;;;;;;55.70;25.77;;;;;;;;;;5091998;28;20387;-77
2022/11/03 13:48:37;;;;;;;54.42;25.70;;;;;;;;;;5063365;28;20041;-77
2022/11/03 13:51:22;;;;;;;59.22;24.48;;;;;;;;;;5058121;28;20049;-80
2022/11/03 13:54:07;;;;;;;48.67;22.67;;;;;;;;;;5063737;28;20387;-78
2022/11/03 13:56:52;;;;;;;49.28;23.70;;;;;;;;;;5063018;28;20041;-79
2022/11/03 13:59:37;;;;;;;48.95;23.02;;;;;;;;;;5070028;28;20033;-80
2022/11/03 14:02:22;;;;;;;51.90;23.50;;;;;;;;;;5089385;28;20040;-77
2022/11/03 14:05:09;;;;;;;54.30;23.77;;;;;;;;;;5096270;28;20052;-78
2022/11/03 14:07:55;;;;;;;46.25;23.42;;;;;;;;;;5103848;28;20482;-77
2022/11/03 14:10:40;;;;;;;60.05;24.73;;;;;;;;;;5102690;28;20386;-77
2022/11/03 14:13:26;;;;;;;53.08;23.73;;;;;;;;;;5096420;28;20471;-77
2022/11/03 14:16:12;;;;;;;50.85;24.80;;;;;;;;;;5082541;28;20036;-78
2022/11/03 14:18:57;;;;;;;59.03;26.08;;;;;;;;;;5097298;28;20044;-77
2022/11/03 14:21:42;;;;;;;57.30;25.30;;;;;;;;;;5080573;28;20040;-77
2022/11/03 14:24:27;;;;;;;54.22;23.02;;;;;;;;;;5074076;28;20040;-77
2022/11/03 14:27:14;;;;;;;65.28;24.65;;;;;;;;;;5061072;28;20033;-79
2022/11/03 14:30:00;;;;;;;49.15;23.73;;;;;;;;;;5072690;28;20040;-78
2022/11/03 14:32:45;;;;;;;56.63;23.90;;;;;;;;;;5101788;28;20045;-78
2022/11/03 14:35:31;;;;;;;59.60;24.38;;;;;;;;;;5085967;28;20052;-77
2022/11/03 14:38:16;;;;;;;59.33;24.88;;;;;;;;;;5083614;28;20040;-79
2022/11/03 14:44:05;;;;;;;53.78;23.98;;;;;;;;;;5081165;28;20391;-78
2022/11/03 14:46:51;;;;;;;60.58;25.85;;;;;;;;;;5085892;28;20040;-77
2022/11/03 14:49:37;;;;;;;58.75;25.83;;;;;;;;;;5100190;28;20039;-80
2022/11/03 14:52:22;;;;;;;56.85;24.35;;;;;;;;;;5087451;28;20040;-77
2022/11/03 14:55:08;;;;;;;51.40;25.77;;;;;;;;;;5080586;28;20040;-78
2022/11/03 14:57:53;;;;;;;59.60;27.15;;;;;;;;;;5074296;28;20479;-78
2022/11/03 15:00:39;;;;;;;56.58;27.90;;;;;;;;;;5080154;28;20028;-79
2022/11/03 15:03:25;;;;;;;59.05;28.85;;;;;;;;;;5081540;28;20048;-77
2022/11/03 15:06:10;;;;;;;56.95;26.38;;;;;;;;;;5088148;28;20056;-77
2022/11/03 15:08:55;;;;;;;80.97;38.38;;;;;;;;;;5082208;28;20044;-78
2022/11/03 15:11:42;;;;;;;104.10;49.30;;;;;;;;;;5080766;28;20048;-78
2022/11/03 15:14:28;;;;;;;317.75;160.45;;;;;;;;;;5081112;28;20044;-77
2022/11/03 15:17:13;;;;;;;225.95;113.97;;;;;;;;;;5081901;28;20040;-79
2022/11/03 15:19:59;;;;;;;161.25;75.43;;;;;;;;;;5081727;28;20471;-79
2022/11/03 15:22:44;;;;;;;128.73;53.03;;;;;;;;;;5082272;28;20044;-79
2022/11/03 15:25:31;;;;;;;132.48;54.70;;;;;;;;;;5088754;28;20049;-77
2022/11/03 15:28:15;;;;;;;128.88;54.10;;;;;;;;;;5094969;28;20387;-78
2022/11/03 15:31:00;;;;;;;142.77;70.18;;;;;;;;;;5101861;28;20044;-78
2022/11/03 15:33:46;;;;;;;165.20;71.93;;;;;;;;;;5070055;28;20041;-78
2022/11/03 15:36:32;;;;;;;165.70;80.82;;;;;;;;;;5079821;28;20044;-80
2022/11/03 15:39:17;;;;;;;163.38;75.30;;;;;;;;;;5095871;28;20036;-79
2022/11/03 15:42:02;;;;;;;162.07;72.35;;;;;;;;;;5094386;28;20032;-78
2022/11/03 15:44:47;;;;;;;163.75;70.78;;;;;;;;;;5086821;28;20049;-79
2022/11/03 15:47:33;;;;;;;197.80;87.85;;;;;;;;;;5080174;28;20037;-80
2022/11/03 15:50:19;;;;;;;211.48;93.40;;;;;;;;;;5078076;28;20053;-78
2022/11/03 15:53:04;;;;;;;221.75;104.63;;;;;;;;;;5079991;28;20463;-77
2022/11/03 15:55:49;;;;;;;232.82;116.75;;;;;;;;;;5090879;28;20459;-79
2022/11/03 15:58:36;;;;;;;260.95;128.98;;;;;;;;;;5073870;28;20099;-78
2022/11/03 16:01:20;;;;;;;250.20;124.75;;;;;;;;;;5081010;28;20040;-77
2022/11/03 16:04:05;;;;;;;263.40;129.80;;;;;;;;;;5075278;28;20048;-78
2022/11/03 16:06:51;;;;;;;263.95;129.07;;;;;;;;;;5079854;28;20040;-78
2022/11/03 16:09:39;;;;;;;236.30;118.93;;;;;;;;;;5071353;28;20029;-78
2022/11/03 16:12:25;;;;;;;228.35;114.38;;;;;;;;;;5076676;28;20384;-79
2022/11/03 16:15:10;;;;;;;211.20;102.45;;;;;;;;;;5080831;28;20044;-78
2022/11/03 16:18:01;;;;;;;207.10;98.20;;;;;;;;;;5077604;28;20039;-79
2022/11/03 16:20:46;;;;;;;175.15;83.43;;;;;;;;;;5062806;28;20083;-78
2022/11/03 16:23:31;;;;;;;196.05;82.88;;;;;;;;;;5060176;28;20049;-78
2022/11/03 16:26:20;;;;;;;191.30;89.60;;;;;;;;;;5060167;28;20045;-79
2022/11/03 16:29:05;;;;;;;224.98;101.00;;;;;;;;;;5062418;28;20040;-78
2022/11/03 16:31:52;;;;;;;232.80;104.68;;;;;;;;;;5079336;28;20056;-78
2022/11/03 16:34:37;;;;;;;246.52;111.43;;;;;;;;;;5080509;28;20041;-77
2022/11/03 16:37:26;;;;;;;222.43;107.20;;;;;;;;;;5079729;28;20109;-78